Station NSXA2 - Nikiski, AK Image indicating link to RSS feed of recent meteorological observations for station NSXA2


Conditions at NSXA2 as of
(2:04 pm AKDT)
2204 GMT on 05/26/2024:
     

Click on the graph icon in the table below to see a time series plot of the last five days of that observation.

5-day plot - Wind Direction Wind Direction (WDIR):SSW ( 200 deg true )
5-day plot - Wind Speed Wind Speed (WSPD): 9 kts
5-day plot - Wind Gust Wind Gust (GST): 15 kts
5-day plot - Air Temperature Air Temperature (ATMP): 53.6 °F
5-day plot - Dew Point Dew Point (DEWP): 42.8 °F
5-day plot - Wind Chill Wind Chill (CHILL): 50.4 °F
5-day plot - Wind Speed at 10 Meters Wind Speed at 10 meters (WSPD10M): 10 kts
5-day plot - Wind Speed at 20 Meters Wind Speed at 20 meters (WSPD20M): 10 kts
5-day plot -  Wind Speed, Wind Gust and Atmospheric Pressure Combined plot of Wind Speed, Gust, and Air Pressure
Previous observations
TIME
(AKDT)
5-day plot - Wind Direction
WDIR
 
5-day plot - Wind Speed
WSPD
kts
5-day plot - Wind Gust
GST
kts
5-day plot - Wave Height
WVHT
ft
5-day plot - Dominant Wave Period
DPD
sec
5-day plot - Average Wave Period
APD
sec
5-day plot - Mean Wave Direction
MWD
 
5-day plot - Atmospheric Pressure
PRES
in
5-day plot - Pressure Tendency
PTDY
in
5-day plot - Air Temperature
ATMP
°F
5-day plot - Water Temperature
WTMP
°F
5-day plot - Dew Point
DEWP
°F
5-day plot - Salinity
SAL
psu
5-day plot - Visibility
VIS
nmi
5-day plot - Tide (above MLLW)
TIDE
ft
2024-05-26 01:55 pm SW 8 20------ 53.8- 42.8---
2024-05-26 01:45 pmSSW 8 13------ 54.0- 42.8---
2024-05-26 01:34 pm S 7 13------ 54.3- 43.2---
2024-05-26 01:24 pmSSW 6 12------ 53.8- 43.3---
2024-05-26 01:14 pmSSW 8 13------ 53.2- 42.8---
2024-05-26 01:05 pm S 7 12------ 52.9- 43.2---
2024-05-26 12:54 pm S 7 12------ 53.2- 43.5---
2024-05-26 12:44 pmSSW 8 19------ 53.2- 43.7---
2024-05-26 12:34 pmSSW 7 13------ 53.1- 43.9---
2024-05-26 12:24 pm S 8 14------ 52.2- 43.5---
2024-05-26 12:14 pm S 10 20------ 51.6- 43.2---
2024-05-26 12:05 pm S 11 16------ 50.9- 43.2---
2024-05-26 11:55 am S 10 16------ 51.4- 43.5---
2024-05-26 11:44 am S 8 15------ 51.6- 43.7---
2024-05-26 11:34 amSSW 8 14------ 51.4- 44.1---
2024-05-26 11:25 amSSW 9 15------ 50.5- 43.7---
2024-05-26 11:14 am S 10 15------ 49.8- 43.3---
2024-05-26 11:04 am S 10 15------ 49.3- 43.3---
2024-05-26 10:55 am S 10 15------ 49.1- 43.5---
2024-05-26 10:44 am S 10 15------ 48.9- 43.5---
2024-05-26 10:34 am S 11 14------ 48.6- 43.2---
2024-05-26 10:24 am S 11 18------ 48.7- 43.3---
2024-05-26 10:14 am S 11 17------ 48.7- 43.5---
2024-05-26 10:04 am S 11 18------ 48.2- 43.3---
2024-05-26 09:54 am S 13 18------ 48.0- 43.2---
2024-05-26 09:44 am S 12 18------ 47.8- 43.2---
2024-05-26 09:34 am S 12 18------ 47.5- 43.0---
2024-05-26 09:24 am S 12 17------ 47.5- 43.2---
2024-05-26 09:14 am S 12 18------ 47.1- 43.0---
2024-05-26 09:04 am S 11 19------ 47.1- 43.2---
2024-05-26 08:54 am S 11 18------ 46.6- 43.0---
2024-05-26 08:45 am S 12 16------ 46.0- 42.6---
2024-05-26 08:35 am S 9 15------ 46.0- 42.8---
2024-05-26 08:25 am S 9 16------ 45.7- 42.6---
2024-05-26 08:14 am S 10 16------ 45.1- 42.4---
2024-05-26 08:05 am S 10 16------ 45.0- 42.3---
2024-05-26 07:54 am S 11 16------ 44.8- 42.3---
2024-05-26 07:44 am S 10 16------ 44.8- 42.1---
2024-05-26 07:34 am S 10 15------ 45.0- 42.3---
2024-05-26 07:24 am S 11 17------ 44.8- 42.1---
2024-05-26 07:14 am S 11 17------ 44.4- 41.9---
2024-05-26 07:04 am S 11 17------ 44.4- 41.9---
2024-05-26 06:54 am S 11 18------ 44.2- 41.9---
2024-05-26 06:44 am S 12 18------ 44.2- 41.7---
2024-05-26 06:34 am S 12 17------ 44.2- 41.7---
2024-05-26 06:25 am S 12 19------ 44.2- 41.7---
2024-05-26 06:14 am S 12 18------ 44.2- 41.7---
2024-05-26 06:05 am S 12 17------ 44.2- 41.7---
2024-05-26 05:54 am S 11 16------ 44.4- 41.9---
2024-05-26 05:44 am S 10 14------ 44.6- 41.9---
2024-05-26 05:35 am S 10 17------ 44.8- 42.1---
2024-05-26 05:24 am S 11 17------ 44.8- 42.1---
2024-05-26 05:14 am S 12 20------ 44.6- 41.9---
2024-05-26 05:05 am S 12 19------ 44.6- 41.9---
2024-05-26 04:54 am S 12 17------ 44.4- 41.9---
2024-05-26 04:44 am S 13 21------ 44.2- 41.7---
2024-05-26 04:34 am S 13 19------ 44.2- 41.7---
2024-05-26 04:24 am S 11 16------ 44.1- 41.5---
2024-05-26 04:14 am S 12 18------ 43.9- 41.4---
2024-05-26 04:04 am S 13 18------ 43.7- 41.2---
2024-05-26 03:54 am S 13 19------ 43.7- 41.2---
2024-05-26 03:44 am S 13 19------ 43.5- 41.2---
2024-05-26 03:34 am S 13 19------ 43.5- 41.0---
2024-05-26 03:24 am S 12 18------ 43.5- 41.0---
2024-05-26 03:14 am S 12 17------ 43.7- 41.2---
2024-05-26 03:04 am S 12 17------ 43.7- 41.2---
2024-05-26 02:54 am S 11 15------ 43.7- 41.0---
2024-05-26 02:44 am S 11 17------ 43.9- 41.2---
2024-05-26 02:34 am S 12 16------ 43.9- 41.2---
2024-05-26 02:24 am S 11 16------ 43.5- 40.8---
2024-05-26 02:04 am S 11 15------ 43.3- 40.6---
2024-05-26 01:54 am S 11 14------ 43.2- 40.5---
2024-05-26 01:44 am S 10 14------ 42.8- 40.3---
2024-05-26 01:34 am S 10 13------ 42.8- 40.1---
2024-05-26 01:24 am S 10 12------ 43.0- 40.3---
2024-05-26 01:04 am S 9 12------ 43.2- 40.3---
2024-05-26 12:54 am S 10 11------ 43.3- 40.3---
2024-05-26 12:44 am S 9 11------ 43.9- 40.3---
2024-05-26 12:34 am S 9 11------ 44.4- 40.1---
2024-05-26 12:24 am S 8 10------ 45.3- 40.1---
2024-05-26 12:16 am S 4 7------ 47.1- 39.2---
2024-05-26 12:04 am W 1 2------ 48.4- 38.8---
2024-05-25 11:54 pmSSW 3 4------ 48.2- 39.4---
2024-05-25 11:44 pm W 2 3------ 49.1- 39.2---
2024-05-25 11:34 pmSSW 4 5------ 49.6- 38.8---
2024-05-25 11:24 pm S 6 7------ 48.0- 40.8---
2024-05-25 11:14 pm S 6 7------ 47.1- 40.8---
2024-05-25 11:04 pm S 4 5------ 48.4- 39.7---
2024-05-25 10:54 pm SW 2 3------ 49.3- 39.7---
2024-05-25 10:44 pmWNW 1 1------ 49.3- 39.9---
2024-05-25 10:34 pm W 1 2------ 49.1- 40.1---
2024-05-25 10:24 pm S 2 3------ 49.1- 40.5---
2024-05-25 10:14 pmSSW 1 2------ 49.8- 40.6---
2024-05-25 10:04 pmWNW 1 2------ 50.0- 40.1---
2024-05-25 09:54 pm W 2 2------ 50.2- 40.5---
2024-05-25 09:44 pmWNW 1 2------ 50.5- 40.6---
2024-05-25 09:34 pm NW 2 3------ 50.9- 40.6---
2024-05-25 09:25 pm NW 2 4------ 51.3- 40.6---
2024-05-25 09:14 pm NW 2 4------ 52.0- 41.4---
2024-05-25 09:04 pm NW 2 4------ 52.0- 41.2---
2024-05-25 08:55 pmNNW 2 4------ 52.5- 41.2---
2024-05-25 08:44 pmNNW 2 4------ 52.7- 41.7---
2024-05-25 08:35 pm NW 2 3------ 52.0- 41.4---
2024-05-25 08:25 pmNNW 2 4------ 51.4- 41.2---
2024-05-25 08:15 pm NW 2 4------ 49.8- 40.5---
2024-05-25 08:04 pm NW 2 5------ 49.1- 40.5---
2024-05-25 07:55 pmWNW 3 5------ 49.1- 40.8---
2024-05-25 07:44 pm NW 3 4------ 49.8- 41.2---
2024-05-25 07:34 pm NW 3 4------ 49.6- 41.2---
2024-05-25 07:24 pm NW 3 5------ 49.6- 41.2---
2024-05-25 07:14 pmWNW 3 5------ 49.5- 41.2---
2024-05-25 07:04 pm NW 3 5------ 50.0- 41.4---
2024-05-25 06:54 pmNNW 2 5------ 50.5- 41.4---
2024-05-25 06:44 pm NW 3 5------ 50.2- 41.5---
2024-05-25 06:34 pm NW 3 6------ 50.2- 42.1---
2024-05-25 06:24 pm NW 3 5------ 50.4- 42.1---
2024-05-25 06:14 pm NW 3 6------ 50.5- 42.4---
2024-05-25 06:05 pm NW 3 6------ 49.8- 42.3---
2024-05-25 05:55 pm NW 4 7------ 49.8- 42.4---
2024-05-25 05:44 pm NW 4 7------ 50.4- 43.0---
2024-05-25 05:35 pm NW 4 8------ 51.1- 42.4---
2024-05-25 05:25 pmNNW 4 7------ 51.8- 41.4---
2024-05-25 05:14 pm N 3 8------ 52.3- 41.5---
2024-05-25 05:04 pm N 4 7------ 52.0- 41.4---
2024-05-25 04:54 pmNNW 5 8------ 51.4- 41.2---
2024-05-25 04:44 pmNNW 4 7------ 51.8- 41.5---
2024-05-25 04:34 pm N 4 6------ 51.8- 41.5---
2024-05-25 04:24 pmNNW 4 7------ 50.4- 41.9---
2024-05-25 04:14 pm NW 5 7------ 49.6- 42.1---
2024-05-25 03:54 pmNNW 5 7------ 50.5- 42.1---
2024-05-25 03:44 pmNNW 5 8------ 50.2- 42.4---
2024-05-25 03:34 pmNNW 4 7------ 49.8- 42.8---
2024-05-25 03:24 pmNNW 4 7------ 49.8- 42.6---
2024-05-25 03:14 pmNNW 4 6------ 50.2- 43.2---
2024-05-25 03:05 pmNNW 4 7------ 50.4- 43.3---
2024-05-25 02:54 pmNNW 4 7------ 50.4- 43.3---
2024-05-25 02:44 pmNNW 5 7------ 50.0- 43.0---
2024-05-25 02:34 pm N 5 8------ 50.0- 42.8---
2024-05-25 02:24 pmNNW 5 8------ 49.8- 43.0---
2024-05-25 02:14 pm N 5 9------ 49.5- 42.3---
2024-05-25 02:04 pm N 6 9------ 49.6- 41.9---
2024-05-25 01:54 pm N 6 9------ 49.6- 42.3---